createdAt,value
2023-06-22T00:00:25.532Z,4.53
2023-06-22T00:02:57.294Z,3.53
2023-06-22T00:05:28.922Z,3.53
2023-06-22T00:08:05.962Z,3.38
2023-06-22T00:10:37.716Z,2.75
2023-06-22T00:13:10.446Z,2.08
2023-06-22T00:15:43.507Z,4.28
2023-06-22T00:18:15.180Z,4.47
2023-06-22T00:20:46.918Z,3.35
2023-06-22T00:23:19.001Z,2.53
2023-06-22T00:25:50.780Z,3.58
2023-06-22T00:28:22.607Z,3.42
2023-06-22T00:30:54.458Z,1.48
2023-06-22T00:33:26.112Z,3.25
2023-06-22T00:35:57.721Z,4.00
2023-06-22T00:38:31.807Z,4.53
2023-06-22T00:41:03.428Z,3.75
2023-06-22T00:43:35.084Z,2.83
2023-06-22T00:46:06.749Z,4.28
2023-06-22T00:48:38.474Z,3.85
2023-06-22T00:51:11.523Z,3.05
2023-06-22T00:53:44.255Z,3.53
2023-06-22T00:56:15.906Z,3.28
2023-06-22T00:58:48.472Z,3.35
2023-06-22T01:01:24.509Z,3.13
2023-06-22T01:06:41.683Z,3.03
2023-06-22T01:09:23.887Z,3.40
2023-06-22T01:12:03.155Z,4.35
2023-06-22T01:14:53.288Z,4.95
2023-06-22T01:17:27.862Z,4.05
2023-06-22T01:22:43.446Z,4.07
2023-06-22T01:25:22.103Z,4.20
2023-06-22T01:28:32.742Z,4.05
2023-06-22T01:31:06.515Z,4.13
2023-06-22T01:33:42.728Z,4.82
2023-06-22T01:36:17.509Z,5.53
2023-06-22T01:38:50.157Z,3.55
2023-06-22T01:41:23.247Z,3.33
2023-06-22T01:43:56.218Z,1.80
2023-06-22T01:46:30.388Z,4.20
2023-06-22T01:49:04.063Z,3.63
2023-06-22T01:51:35.775Z,4.20
2023-06-22T01:54:09.190Z,3.78
2023-06-22T01:56:40.960Z,3.97
2023-06-22T01:59:21.795Z,5.43
2023-06-22T02:04:43.772Z,5.07
2023-06-22T02:07:18.968Z,7.30
2023-06-22T02:09:53.571Z,4.45
2023-06-22T02:15:02.034Z,3.85
2023-06-22T02:17:34.650Z,3.55
2023-06-22T02:20:09.100Z,4.15
2023-06-22T02:22:40.884Z,4.03
2023-06-22T02:25:15.916Z,4.50
2023-06-22T02:27:47.768Z,4.57
2023-06-22T02:30:19.348Z,3.72
2023-06-22T02:32:59.595Z,4.60
2023-06-22T02:35:36.670Z,4.75
2023-06-22T02:38:09.277Z,5.82
2023-06-22T02:40:40.887Z,3.17
2023-06-22T02:43:20.472Z,4.68
2023-06-22T02:45:54.231Z,3.45
2023-06-22T02:48:26.081Z,2.55
2023-06-22T02:50:57.693Z,2.30
2023-06-22T02:53:29.324Z,3.45
2023-06-22T02:56:06.568Z,3.28
2023-06-22T02:58:40.448Z,3.47
2023-06-22T03:01:14.180Z,4.10
2023-06-22T03:03:45.973Z,3.72
2023-06-22T03:06:19.903Z,3.00
2023-06-22T03:08:51.973Z,3.97
2023-06-22T03:11:23.588Z,4.78
2023-06-22T03:13:55.212Z,3.22
2023-06-22T03:16:26.970Z,4.38
2023-06-22T03:18:58.595Z,3.88
2023-06-22T03:21:30.599Z,3.13
2023-06-22T03:24:02.367Z,3.28
2023-06-22T03:26:34.544Z,4.38
2023-06-22T03:29:06.184Z,3.90
2023-06-22T03:31:37.980Z,5.00
2023-06-22T03:34:12.083Z,3.65
2023-06-22T03:36:46.372Z,4.97
2023-06-22T03:39:18.017Z,7.00
2023-06-22T03:41:49.603Z,3.75
2023-06-22T03:44:23.409Z,5.70
2023-06-22T03:46:55.100Z,4.10
2023-06-22T03:49:26.694Z,5.10
2023-06-22T03:51:58.528Z,3.35
2023-06-22T03:54:30.930Z,4.82
2023-06-22T03:57:02.688Z,3.83
2023-06-22T03:59:35.623Z,4.53
2023-06-22T04:02:07.858Z,3.08
2023-06-22T04:04:40.670Z,5.65
2023-06-22T04:07:14.540Z,5.25
2023-06-22T04:09:46.610Z,4.75
2023-06-22T04:12:18.500Z,4.53
2023-06-22T04:14:50.698Z,5.45
2023-06-22T04:17:24.625Z,4.07
2023-06-22T04:19:56.274Z,4.10
2023-06-22T04:22:27.870Z,4.15
2023-06-22T04:24:59.485Z,3.20
2023-06-22T04:27:31.130Z,5.30
2023-06-22T04:30:02.961Z,5.55
2023-06-22T04:32:37.314Z,4.70
2023-06-22T04:35:09.800Z,4.75
2023-06-22T04:37:41.524Z,4.85
2023-06-22T04:40:15.653Z,6.75
2023-06-22T04:42:53.313Z,4.65
2023-06-22T04:45:25.050Z,5.65
2023-06-22T04:47:56.830Z,4.78
2023-06-22T04:50:28.781Z,4.20
2023-06-22T04:53:00.631Z,4.63
2023-06-22T04:55:35.370Z,5.28
2023-06-22T05:00:41.457Z,3.67
2023-06-22T05:03:19.766Z,5.43
2023-06-22T05:05:53.727Z,3.58
2023-06-22T05:08:27.925Z,5.15
2023-06-22T05:11:05.657Z,4.40
2023-06-22T05:13:37.990Z,4.60
2023-06-22T05:16:09.856Z,5.65
2023-06-22T05:18:42.972Z,5.85
2023-06-22T05:21:14.695Z,4.63
2023-06-22T05:23:46.280Z,6.28
2023-06-22T05:26:18.917Z,5.55
2023-06-22T05:28:51.306Z,3.53
2023-06-22T05:31:25.920Z,5.13
2023-06-22T05:33:57.823Z,4.30
2023-06-22T05:36:32.401Z,5.80
2023-06-22T05:39:14.724Z,6.03
2023-06-22T05:41:47.292Z,4.82
2023-06-22T05:44:19.779Z,7.07
2023-06-22T05:46:51.471Z,6.03
2023-06-22T05:49:24.380Z,4.80
2023-06-22T05:51:57.079Z,4.25
2023-06-22T05:54:29.382Z,7.65
2023-06-22T05:57:00.958Z,6.30
2023-06-22T05:59:32.824Z,2.90
2023-06-22T06:02:06.248Z,3.55
2023-06-22T06:04:38.029Z,6.15
2023-06-22T06:07:09.674Z,4.95
2023-06-22T06:09:41.283Z,4.90
2023-06-22T06:12:13.024Z,6.43
2023-06-22T06:14:44.727Z,6.30
2023-06-22T06:17:16.335Z,6.43
2023-06-22T06:19:47.921Z,5.57
2023-06-22T06:22:20.213Z,5.75
2023-06-22T06:24:51.897Z,5.55
2023-06-22T06:27:32.772Z,7.05
2023-06-22T06:30:05.270Z,5.55
2023-06-22T06:32:36.926Z,6.57
2023-06-22T06:35:10.337Z,6.35
2023-06-22T06:37:45.494Z,6.35
2023-06-22T06:40:19.104Z,8.65
2023-06-22T06:42:51.273Z,3.97
2023-06-22T06:45:26.692Z,6.30
2023-06-22T06:47:58.393Z,6.10
2023-06-22T06:50:30.397Z,9.50
2023-06-22T06:53:02.459Z,8.15
2023-06-22T06:55:34.236Z,7.90
2023-06-22T06:58:08.730Z,7.68
2023-06-22T07:03:12.329Z,7.07
2023-06-22T07:05:43.907Z,5.82
2023-06-22T07:08:15.577Z,7.15
2023-06-22T07:10:47.631Z,9.88
2023-06-22T07:13:19.382Z,7.78
2023-06-22T07:15:50.971Z,7.55
2023-06-22T07:18:22.628Z,8.38
2023-06-22T07:20:54.402Z,7.22
2023-06-22T07:23:26.345Z,4.10
2023-06-22T07:25:58.380Z,9.20
2023-06-22T07:28:38.083Z,9.65
2023-06-22T07:31:09.741Z,5.75
2023-06-22T07:33:41.404Z,9.00
2023-06-22T07:36:13.439Z,10.85
2023-06-22T07:38:45.540Z,13.80
2023-06-22T07:41:17.223Z,14.40
2023-06-22T07:43:49.076Z,20.52
2023-06-22T07:46:20.768Z,15.77
2023-06-22T07:48:55.573Z,11.95
2023-06-22T07:51:28.420Z,13.32
2023-06-22T07:54:00.191Z,13.00
2023-06-22T07:56:31.881Z,14.38
2023-06-22T07:59:04.878Z,17.60
2023-06-22T08:01:36.784Z,15.25
2023-06-22T08:04:08.675Z,12.25
2023-06-22T08:06:40.476Z,10.77
2023-06-22T08:09:12.428Z,18.08
2023-06-22T08:11:46.410Z,12.90
2023-06-22T08:14:20.107Z,18.13
2023-06-22T08:16:51.911Z,20.45
2023-06-22T08:19:23.561Z,17.85
2023-06-22T08:21:57.312Z,17.05
2023-06-22T08:24:31.641Z,13.13
2023-06-22T08:29:38.214Z,14.32
2023-06-22T08:32:11.075Z,12.25
2023-06-22T08:34:43.414Z,11.75
2023-06-22T08:37:15.076Z,8.85
2023-06-22T08:39:47.480Z,9.25
2023-06-22T08:42:19.128Z,11.48
2023-06-22T08:44:51.395Z,8.50
2023-06-22T08:47:24.236Z,11.43
2023-06-22T08:49:56.195Z,12.38
2023-06-22T08:52:27.888Z,9.10
2023-06-22T08:54:59.710Z,14.45
2023-06-22T08:57:31.707Z,9.43
2023-06-22T09:00:06.115Z,7.45
2023-06-22T09:05:10.513Z,7.78
2023-06-22T09:07:42.840Z,12.05
2023-06-22T09:10:14.687Z,12.30
2023-06-22T09:12:46.301Z,8.93
2023-06-22T09:15:20.307Z,29.05
2023-06-22T09:17:52.061Z,9.30
2023-06-22T09:20:23.834Z,20.27
2023-06-22T09:22:55.388Z,10.98
2023-06-22T09:25:27.343Z,19.67
2023-06-22T09:27:59.295Z,23.40
2023-06-22T09:30:31.138Z,10.50
2023-06-22T09:33:03.546Z,20.35
2023-06-22T09:35:35.471Z,18.80
2023-06-22T09:38:07.166Z,27.70
2023-06-22T09:40:41.136Z,18.70
2023-06-22T09:43:13.307Z,17.20
2023-06-22T09:45:44.917Z,17.58
2023-06-22T09:48:19.245Z,20.10
2023-06-22T09:50:51.111Z,22.70
2023-06-22T09:53:22.735Z,42.42
2023-06-22T09:55:54.384Z,37.10
2023-06-22T09:58:26.007Z,42.72
2023-06-22T10:00:57.693Z,25.02
2023-06-22T10:03:29.421Z,24.38
2023-06-22T10:06:01.259Z,30.88
2023-06-22T10:08:32.927Z,23.98
2023-06-22T10:11:05.206Z,35.20
2023-06-22T10:13:36.874Z,19.05
2023-06-22T10:16:10.871Z,22.45
2023-06-22T10:21:14.842Z,21.38
2023-06-22T10:23:46.459Z,23.55
2023-06-22T10:26:18.134Z,23.00
2023-06-22T10:31:35.715Z,26.20
2023-06-22T10:34:09.386Z,14.27
2023-06-22T10:36:41.067Z,19.40
2023-06-22T10:39:12.696Z,14.27
2023-06-22T10:41:44.357Z,30.67
2023-06-22T10:44:16.069Z,28.27
2023-06-22T10:46:47.739Z,27.50
2023-06-22T10:49:19.602Z,32.67
2023-06-22T10:51:51.294Z,27.75
2023-06-22T10:54:22.901Z,24.90
2023-06-22T10:56:54.451Z,14.15
2023-06-22T10:59:27.010Z,30.33
2023-06-22T11:02:04.935Z,33.78
2023-06-22T11:04:36.862Z,28.35
2023-06-22T11:07:08.547Z,32.35
2023-06-22T11:09:47.745Z,39.85
2023-06-22T11:12:19.365Z,39.65
2023-06-22T11:14:54.051Z,61.38
2023-06-22T11:17:25.858Z,48.03
2023-06-22T11:19:57.590Z,51.03
2023-06-22T11:22:29.209Z,46.03
2023-06-22T11:25:00.792Z,45.28
2023-06-22T11:27:32.675Z,32.17
2023-06-22T11:30:06.655Z,31.45
2023-06-22T11:35:13.016Z,20.63
2023-06-22T11:37:46.078Z,29.98
2023-06-22T11:40:18.811Z,32.00
2023-06-22T11:42:50.400Z,32.25
2023-06-22T11:45:22.171Z,32.20
2023-06-22T11:47:54.025Z,25.00
2023-06-22T11:50:26.052Z,27.15
2023-06-22T11:52:57.731Z,30.20
2023-06-22T11:55:29.474Z,29.02
2023-06-22T11:58:04.658Z,27.10
2023-06-22T12:00:49.494Z,15.32
2023-06-22T12:03:23.122Z,24.90
2023-06-22T12:05:55.063Z,33.85
2023-06-22T12:08:26.896Z,29.85
2023-06-22T12:10:58.567Z,15.70
2023-06-22T12:13:30.274Z,30.83
2023-06-22T12:16:04.550Z,16.27
2023-06-22T12:18:36.201Z,20.10
2023-06-22T12:21:10.975Z,19.38
2023-06-22T12:23:44.729Z,20.83
2023-06-22T12:26:16.882Z,24.30
2023-06-22T12:28:49.574Z,20.73
2023-06-22T12:31:21.375Z,30.67
2023-06-22T12:33:53.076Z,21.33
2023-06-22T12:36:25.413Z,32.70
2023-06-22T12:38:56.996Z,27.25
2023-06-22T12:41:31.495Z,24.17
2023-06-22T12:44:03.572Z,23.42
2023-06-22T12:46:38.747Z,20.45
2023-06-22T12:49:10.493Z,26.25
2023-06-22T12:51:43.570Z,22.33
2023-06-22T12:54:15.208Z,28.27
2023-06-22T12:56:46.833Z,28.10
2023-06-22T12:59:18.904Z,27.45
2023-06-22T13:01:50.551Z,21.42
2023-06-22T13:04:22.431Z,18.92
2023-06-22T13:06:54.338Z,23.40
2023-06-22T13:09:26.924Z,23.10
2023-06-22T13:12:00.980Z,24.13
2023-06-22T13:14:32.547Z,20.92
2023-06-22T13:17:04.403Z,20.98
2023-06-22T13:19:36.126Z,30.65
2023-06-22T13:22:31.892Z,16.80
2023-06-22T13:25:11.208Z,24.38
2023-06-22T13:27:43.173Z,25.42
2023-06-22T13:30:15.695Z,33.20
2023-06-22T13:32:47.363Z,20.70
2023-06-22T13:35:19.616Z,33.17
2023-06-22T13:37:51.219Z,27.60
2023-06-22T13:40:22.871Z,30.75
2023-06-22T13:42:56.380Z,22.98
2023-06-22T13:45:31.551Z,31.13
2023-06-22T13:48:03.421Z,24.10
2023-06-22T13:50:35.150Z,24.45
2023-06-22T13:53:09.872Z,27.73
2023-06-22T13:55:41.606Z,32.63
2023-06-22T13:58:13.319Z,27.73
2023-06-22T14:00:46.030Z,36.05
2023-06-22T14:03:17.870Z,41.08
2023-06-22T14:05:49.843Z,38.75
2023-06-22T14:08:40.571Z,36.67
2023-06-22T14:11:14.138Z,28.65
2023-06-22T14:13:45.851Z,30.13
2023-06-22T14:16:17.677Z,26.85
2023-06-22T14:18:49.364Z,25.65
2023-06-22T14:21:21.133Z,27.20
2023-06-22T14:23:52.829Z,26.60
2023-06-22T14:26:24.411Z,22.85
2023-06-22T14:28:57.821Z,27.00
2023-06-22T14:31:29.638Z,27.67
2023-06-22T14:34:04.659Z,29.75
2023-06-22T14:36:36.356Z,21.33
2023-06-22T14:39:08.070Z,20.88
2023-06-22T14:41:39.797Z,26.52
2023-06-22T14:44:11.447Z,27.83
2023-06-22T14:46:43.074Z,30.60
2023-06-22T14:49:14.638Z,24.08
2023-06-22T14:51:46.291Z,21.15
2023-06-22T14:54:18.009Z,31.17
2023-06-22T14:56:49.838Z,23.48
2023-06-22T14:59:21.464Z,31.13
2023-06-22T15:01:53.347Z,26.67
2023-06-22T15:04:25.153Z,16.95
2023-06-22T15:06:56.782Z,30.70
2023-06-22T15:09:28.490Z,22.45
2023-06-22T15:12:02.364Z,21.17
2023-06-22T15:14:34.025Z,21.67
2023-06-22T15:17:06.881Z,17.25
2023-06-22T15:19:41.522Z,18.45
2023-06-22T15:22:13.919Z,22.55
2023-06-22T15:24:46.742Z,10.73
2023-06-22T15:27:18.436Z,18.10
2023-06-22T15:29:50.106Z,20.30
2023-06-22T15:32:21.788Z,23.52
2023-06-22T15:34:55.133Z,19.90
2023-06-22T15:37:32.612Z,15.98
2023-06-22T15:40:05.525Z,17.77
2023-06-22T15:42:37.157Z,18.55
2023-06-22T15:45:09.627Z,9.68
2023-06-22T15:47:41.269Z,20.75
2023-06-22T15:50:12.970Z,28.35
2023-06-22T15:52:51.233Z,14.60
2023-06-22T15:55:23.330Z,19.50
2023-06-22T15:57:55.040Z,20.58
2023-06-22T16:00:27.978Z,24.98
2023-06-22T16:02:59.877Z,14.05
2023-06-22T16:05:31.828Z,15.93
2023-06-22T16:08:03.503Z,19.48
2023-06-22T16:10:35.148Z,12.30
2023-06-22T16:13:06.745Z,11.82
2023-06-22T16:15:38.393Z,15.02
2023-06-22T16:18:10.055Z,10.32
2023-06-22T16:20:41.807Z,16.83
2023-06-22T16:23:15.720Z,8.68
2023-06-22T16:25:47.659Z,8.57
2023-06-22T16:28:19.262Z,2.88
2023-06-22T16:30:52.643Z,9.40
2023-06-22T16:33:28.175Z,9.32
2023-06-22T16:35:59.924Z,9.13
2023-06-22T16:38:34.920Z,9.63
2023-06-22T16:41:08.256Z,7.88
2023-06-22T16:43:42.965Z,9.70
2023-06-22T16:46:14.637Z,5.50
2023-06-22T16:48:55.061Z,7.95
2023-06-22T16:53:58.390Z,4.97
2023-06-22T16:56:30.261Z,5.65
2023-06-22T16:59:07.580Z,7.15
2023-06-22T17:01:52.877Z,6.43
2023-06-22T17:04:34.897Z,6.50
2023-06-22T17:07:16.467Z,4.70
2023-06-22T17:09:50.892Z,4.43
2023-06-22T17:14:58.984Z,3.80
2023-06-22T17:17:31.559Z,6.22
2023-06-22T17:20:04.179Z,5.15
2023-06-22T17:22:39.654Z,6.40
2023-06-22T17:25:11.522Z,5.22
2023-06-22T17:27:43.173Z,5.15
2023-06-22T17:30:18.685Z,3.53
2023-06-22T17:32:50.851Z,4.78
2023-06-22T17:35:25.177Z,3.53
2023-06-22T17:38:00.801Z,4.45
2023-06-22T17:40:32.693Z,2.15
2023-06-22T17:43:09.442Z,2.85
2023-06-22T17:45:43.503Z,1.70
2023-06-22T17:48:15.769Z,2.00
2023-06-22T17:50:47.543Z,1.52
2023-06-22T17:53:19.281Z,0.47
2023-06-22T17:55:53.459Z,1.00
2023-06-22T17:58:27.366Z,1.45
2023-06-22T18:00:59.037Z,3.08
2023-06-22T18:03:31.096Z,1.77
2023-06-22T18:06:02.792Z,2.85
2023-06-22T18:08:34.734Z,3.05
2023-06-22T18:11:09.065Z,3.97
2023-06-22T18:13:41.963Z,2.40
2023-06-22T18:16:13.624Z,1.35
2023-06-22T18:18:48.078Z,0.82
2023-06-22T18:21:21.887Z,4.28
2023-06-22T18:23:54.988Z,4.32
2023-06-22T18:26:27.750Z,3.97
2023-06-22T18:28:59.871Z,2.83
2023-06-22T18:31:36.087Z,3.17
2023-06-22T18:34:11.826Z,1.85
2023-06-22T18:36:54.438Z,3.28
2023-06-22T18:39:27.340Z,2.95
2023-06-22T18:42:03.056Z,3.30
2023-06-22T18:44:41.844Z,2.88
2023-06-22T18:47:13.543Z,4.15
2023-06-22T18:49:45.084Z,4.45
2023-06-22T18:52:29.278Z,4.35
2023-06-22T18:55:04.233Z,2.58
2023-06-22T18:57:38.184Z,2.55
2023-06-22T19:00:11.307Z,1.88
2023-06-22T19:03:01.695Z,1.73
2023-06-22T19:05:43.739Z,1.77
2023-06-22T19:08:15.962Z,1.65
2023-06-22T19:10:47.740Z,2.67
2023-06-22T19:13:27.512Z,1.70
2023-06-22T19:16:13.982Z,1.17
2023-06-22T19:18:50.739Z,1.23
2023-06-22T19:21:24.369Z,1.20
2023-06-22T19:23:56.237Z,1.00
2023-06-22T19:26:28.581Z,2.28
2023-06-22T19:29:03.462Z,0.20
2023-06-22T19:31:35.868Z,1.02
2023-06-22T19:34:07.658Z,1.25
2023-06-22T19:36:39.497Z,1.25
2023-06-22T19:39:12.418Z,0.80
2023-06-22T19:41:47.167Z,0.43
2023-06-22T19:44:18.915Z,0.95
2023-06-22T19:46:53.903Z,0.32
2023-06-22T19:49:26.887Z,0.90
2023-06-22T19:52:08.192Z,1.20
2023-06-22T19:54:41.460Z,1.30
2023-06-22T19:57:13.332Z,0.28
2023-06-22T19:59:46.395Z,0.40
2023-06-22T20:02:18.206Z,0.00
2023-06-22T20:04:49.876Z,0.30
2023-06-22T20:07:21.522Z,0.10
2023-06-22T20:10:13.022Z,0.38
2023-06-22T20:12:52.824Z,1.10
2023-06-22T20:15:27.209Z,0.47
2023-06-22T20:18:09.877Z,0.17
2023-06-22T20:20:48.103Z,0.10
2023-06-22T20:23:22.948Z,0.47
2023-06-22T20:25:55.030Z,1.58
2023-06-22T20:28:27.406Z,0.52
2023-06-22T20:31:02.012Z,0.20
2023-06-22T20:36:13.660Z,0.55
2023-06-22T20:38:46.940Z,0.60
2023-06-22T20:41:18.664Z,0.20
2023-06-22T20:43:55.287Z,0.22
2023-06-22T20:46:31.231Z,0.10
2023-06-22T20:49:04.062Z,0.28
2023-06-22T20:51:35.649Z,0.00
2023-06-22T20:54:07.325Z,0.55
2023-06-22T20:56:38.958Z,2.63
2023-06-22T20:59:12.786Z,1.17
2023-06-22T21:01:47.809Z,0.57
2023-06-22T21:04:19.657Z,0.88
2023-06-22T21:06:51.476Z,1.88
2023-06-22T21:09:23.171Z,0.20
2023-06-22T21:11:55.298Z,1.65
2023-06-22T21:14:27.175Z,1.05
2023-06-22T21:16:58.783Z,0.10
2023-06-22T21:19:30.412Z,0.60
2023-06-22T21:22:02.133Z,0.35
2023-06-22T21:24:33.771Z,0.35
2023-06-22T21:27:05.663Z,0.45
2023-06-22T21:29:37.324Z,1.17
2023-06-22T21:32:09.669Z,0.52
2023-06-22T21:34:41.252Z,0.60
2023-06-22T21:37:12.883Z,0.00
2023-06-22T21:39:47.562Z,0.75
2023-06-22T21:44:51.821Z,1.25
2023-06-22T21:47:26.568Z,0.93
2023-06-22T21:55:03.037Z,1.65
2023-06-22T21:57:34.745Z,3.47
2023-06-22T22:00:12.164Z,0.90
2023-06-22T22:02:43.903Z,1.25
2023-06-22T22:05:15.632Z,0.20
2023-06-22T22:07:47.401Z,0.80
2023-06-22T22:10:22.101Z,0.10
2023-06-22T22:12:55.923Z,0.45
2023-06-22T22:15:27.570Z,0.20
2023-06-22T22:18:05.375Z,0.15
2023-06-22T22:20:37.130Z,0.30
2023-06-22T22:23:08.772Z,0.00
2023-06-22T22:25:42.463Z,0.43
2023-06-22T22:28:14.194Z,0.20
2023-06-22T22:30:45.890Z,0.00
2023-06-22T22:33:17.575Z,0.10
2023-06-22T22:35:49.332Z,0.32
2023-06-22T22:38:20.940Z,0.17
2023-06-22T22:40:52.517Z,0.22
2023-06-22T22:43:24.167Z,0.17
2023-06-22T22:45:55.768Z,0.10
2023-06-22T22:48:27.356Z,0.73
2023-06-22T22:51:04.800Z,1.35
2023-06-22T22:53:39.596Z,0.47
2023-06-22T22:58:43.340Z,0.60
2023-06-22T23:01:14.907Z,0.32
2023-06-22T23:16:20.672Z,1.55
2023-06-22T23:18:52.457Z,0.47
2023-06-22T23:21:24.235Z,1.88
2023-06-22T23:23:56.507Z,0.52
2023-06-22T23:26:29.336Z,1.25
2023-06-22T23:29:03.907Z,0.88
2023-06-22T23:31:38.362Z,1.45
2023-06-22T23:34:11.519Z,0.00
2023-06-22T23:36:43.317Z,1.92
2023-06-22T23:39:16.506Z,0.77
2023-06-22T23:41:48.202Z,1.08
2023-06-22T23:44:19.939Z,0.25
2023-06-22T23:46:52.449Z,0.00
2023-06-22T23:49:24.178Z,1.05
2023-06-22T23:51:55.749Z,0.08
2023-06-22T23:54:27.472Z,0.40
2023-06-22T23:57:01.495Z,0.00
2023-06-22T23:59:33.988Z,0.57
